Time;durP1;ratioP1;P1;durP2;ratioP2;P2;SDS_P1;SDS_P2;PMS_P1;PMS_P2;Temp;Humidity;BMP_temperature;BMP_pressure;BME280_temperature;BME280_humidity;BME280_pressure;Samples;Min_cycle;Max_cycle;Signal;HPM_P1;HPM_P2
2022/08/22 00:02:31;;;;;;;6.47;3.00;;;;;;;18.33;62.55;100885.69;4963169;28;20397;-76
2022/08/22 00:05:13;;;;;;;4.03;2.45;;;;;;;18.35;62.20;100885.53;4970896;28;20070;-74
2022/08/22 00:07:55;;;;;;;5.45;2.83;;;;;;;18.38;62.52;100894.13;4958187;28;20051;-74
2022/08/22 00:10:28;;;;;;;6.03;2.60;;;;;;;18.35;62.17;100886.38;4950218;28;20051;-75
2022/08/22 00:13:37;;;;;;;6.78;2.38;;;;;;;18.32;62.74;100883.97;4964778;28;20053;-76
2022/08/22 00:16:16;;;;;;;6.28;2.25;;;;;;;18.31;62.38;100887.63;4941783;28;20212;-75
2022/08/22 00:19:15;;;;;;;6.78;2.83;;;;;;;18.29;63.37;100883.44;4964010;28;20057;-75
2022/08/22 00:22:01;;;;;;;4.60;2.70;;;;;;;18.26;62.89;100881.84;4959805;28;20058;-75
2022/08/22 00:24:45;;;;;;;4.05;2.20;;;;;;;18.26;62.81;100875.69;4981030;28;20051;-77
2022/08/22 00:27:26;;;;;;;4.97;2.75;;;;;;;18.26;62.82;100870.34;4964527;28;20074;-77
2022/08/22 00:30:03;;;;;;;4.45;2.30;;;;;;;18.28;62.56;100871.94;4965880;28;20050;-76
2022/08/22 00:32:52;;;;;;;4.82;2.20;;;;;;;18.29;62.53;100873.59;4951579;28;20057;-75
2022/08/22 00:35:23;;;;;;;3.97;2.20;;;;;;;18.28;62.47;100873.72;4959177;28;20805;-76
2022/08/22 00:38:12;;;;;;;4.63;2.65;;;;;;;18.21;63.01;100879.59;4948425;28;20620;-75
2022/08/22 00:40:39;;;;;;;4.32;2.50;;;;;;;18.16;63.00;100881.81;4975580;28;20060;-76
2022/08/22 00:43:15;;;;;;;5.00;2.42;;;;;;;18.12;63.19;100874.22;4976707;28;20053;-75
2022/08/22 00:46:12;;;;;;;3.50;2.10;;;;;;;18.10;63.33;100879.69;4959941;28;20789;-76
2022/08/22 00:48:45;;;;;;;4.65;2.22;;;;;;;18.09;63.42;100877.16;4979360;28;20057;-76
2022/08/22 00:51:35;;;;;;;5.28;1.98;;;;;;;18.08;63.63;100884.28;4977636;28;20164;-75
2022/08/22 00:54:21;;;;;;;4.28;2.30;;;;;;;18.09;63.27;100882.47;4949144;28;20062;-75
2022/08/22 00:57:19;;;;;;;7.78;2.22;;;;;;;18.06;63.54;100880.94;4962820;28;20050;-76
2022/08/22 00:59:50;;;;;;;6.20;2.13;;;;;;;18.09;63.81;100880.66;4947610;28;20042;-76
2022/08/22 01:02:50;;;;;;;6.72;2.25;;;;;;;18.01;64.10;100887.63;4955038;28;20042;-75
2022/08/22 01:05:58;;;;;;;6.15;2.63;;;;;;;17.94;64.46;100888.16;4999887;28;20053;-76
2022/08/22 01:08:28;;;;;;;3.95;2.00;;;;;;;17.89;64.34;100889.53;4965437;28;20076;-76
2022/08/22 01:11:04;;;;;;;4.47;1.75;;;;;;;17.81;65.57;100894.66;4964032;28;20058;-77
2022/08/22 01:13:53;;;;;;;5.63;2.72;;;;;;;17.73;66.20;100895.25;4968566;28;20085;-76
2022/08/22 01:16:54;;;;;;;3.55;1.73;;;;;;;17.68;65.97;100892.16;4957269;28;20043;-76
2022/08/22 01:19:45;;;;;;;7.70;2.80;;;;;;;17.66;65.74;100902.94;4975381;28;20066;-75
2022/08/22 01:22:19;;;;;;;3.70;2.00;;;;;;;17.67;65.49;100901.13;4975157;28;20513;-76
2022/08/22 01:25:18;;;;;;;3.58;1.70;;;;;;;17.75;64.97;100901.34;4970792;28;20170;-76
2022/08/22 01:28:29;;;;;;;5.40;2.05;;;;;;;17.71;65.51;100910.53;4971391;28;20054;-76
2022/08/22 01:31:28;;;;;;;5.07;2.10;;;;;;;17.62;65.89;100909.50;4960248;28;20054;-77
2022/08/22 01:34:10;;;;;;;6.43;2.13;;;;;;;17.60;66.01;100906.09;4975411;28;20039;-77
2022/08/22 01:37:03;;;;;;;3.50;1.88;;;;;;;17.57;66.03;100903.72;4972784;28;20070;-77
2022/08/22 01:39:55;;;;;;;4.80;2.80;;;;;;;17.57;65.83;100908.19;4974203;28;20051;-77
2022/08/22 01:42:28;;;;;;;5.97;1.95;;;;;;;17.59;65.65;100916.88;4972622;28;20050;-76
2022/08/22 01:45:01;;;;;;;3.95;1.77;;;;;;;17.55;66.05;100913.63;4971031;28;20054;-76
2022/08/22 01:47:37;;;;;;;3.95;1.95;;;;;;;17.53;65.74;100920.06;4960848;28;20050;-77
2022/08/22 01:50:18;;;;;;;5.20;2.53;;;;;;;17.53;65.77;100915.59;4958020;28;20138;-76
2022/08/22 01:52:49;;;;;;;5.50;2.80;;;;;;;17.54;65.70;100913.78;4960676;28;20590;-76
2022/08/22 01:55:35;;;;;;;5.00;2.08;;;;;;;17.50;66.64;100912.34;4954592;28;20510;-76
2022/08/22 01:58:15;;;;;;;4.50;2.33;;;;;;;17.45;66.38;100913.56;4966877;28;20763;-77
2022/08/22 02:01:21;;;;;;;4.43;2.10;;;;;;;17.47;66.43;100908.09;4961863;28;20069;-76
2022/08/22 02:03:57;;;;;;;3.13;2.13;;;;;;;17.48;66.23;100906.31;4951071;28;20517;-76
2022/08/22 02:06:40;;;;;;;5.03;2.28;;;;;;;17.43;66.56;100907.53;4969508;28;20145;-76
2022/08/22 02:09:26;;;;;;;5.03;2.10;;;;;;;17.40;66.67;100905.13;4948142;28;20152;-76
2022/08/22 02:11:56;;;;;;;5.00;2.45;;;;;;;17.38;67.54;100900.88;4971463;28;20573;-77
2022/08/22 02:14:38;;;;;;;5.63;2.95;;;;;;;17.35;67.64;100898.50;4965386;28;20451;-77
2022/08/22 02:17:12;;;;;;;2.67;1.70;;;;;;;17.30;67.67;100903.34;4964061;28;20089;-76
2022/08/22 02:19:54;;;;;;;4.45;2.33;;;;;;;17.34;67.29;100904.78;4965367;28;20073;-76
2022/08/22 02:22:34;;;;;;;4.55;2.35;;;;;;;17.31;67.41;100900.56;4973276;28;20531;-75
2022/08/22 02:25:25;;;;;;;5.22;2.45;;;;;;;17.29;67.54;100899.84;4971421;28;20051;-76
2022/08/22 02:28:06;;;;;;;4.18;2.10;;;;;;;17.25;68.12;100903.75;4961470;28;20337;-76
2022/08/22 02:31:13;;;;;;;6.13;2.78;;;;;;;17.19;68.20;100904.22;4957866;28;20047;-76
2022/08/22 02:33:57;;;;;;;4.47;2.58;;;;;;;17.14;68.62;100907.25;4973462;28;20141;-77
2022/08/22 02:36:47;;;;;;;5.80;3.03;;;;;;;17.12;69.06;100900.41;4986438;28;20057;-76
2022/08/22 02:39:22;;;;;;;4.78;2.75;;;;;;;17.11;68.66;100904.88;4975731;28;20145;-75
2022/08/22 02:41:52;;;;;;;6.57;2.70;;;;;;;17.13;69.12;100907.41;4957564;28;20049;-76
2022/08/22 02:44:24;;;;;;;6.57;2.55;;;;;;;17.10;68.85;100910.31;4974223;28;20047;-76
2022/08/22 02:47:04;;;;;;;6.95;2.78;;;;;;;17.07;69.71;100906.09;4959096;28;20402;-76
2022/08/22 02:49:37;;;;;;;5.75;2.28;;;;;;;17.05;69.08;100900.03;4958934;28;20047;-76
2022/08/22 02:52:23;;;;;;;6.13;2.42;;;;;;;17.10;68.76;100908.47;4961409;28;20088;-77
2022/08/22 02:54:58;;;;;;;5.75;2.50;;;;;;;17.06;69.31;100912.34;4950719;28;20262;-77
2022/08/22 02:57:35;;;;;;;6.47;2.90;;;;;;;17.04;69.62;100903.66;4957372;28;20058;-75
2022/08/22 03:00:14;;;;;;;5.25;2.67;;;;;;;17.00;70.20;100907.56;4956967;28;20078;-77
2022/08/22 03:03:24;;;;;;;4.50;2.33;;;;;;;17.00;69.65;100902.22;4965971;28;20137;-76
2022/08/22 03:05:58;;;;;;;5.88;2.40;;;;;;;17.05;69.43;100902.69;4967531;28;20063;-77
2022/08/22 03:08:35;;;;;;;4.47;2.72;;;;;;;17.03;69.82;100903.81;4944190;28;21123;-77
2022/08/22 03:11:07;;;;;;;4.38;2.88;;;;;;;17.06;69.26;100907.03;4957645;28;20050;-77
2022/08/22 03:13:51;;;;;;;6.90;2.50;;;;;;;17.12;68.87;100901.25;4974800;28;20043;-75
2022/08/22 03:17:01;;;;;;;7.30;2.80;;;;;;;17.17;68.82;100906.19;4957567;28;20057;-75
2022/08/22 03:20:03;;;;;;;4.32;2.50;;;;;;;17.17;68.67;100903.53;4947004;28;20072;-76
2022/08/22 03:22:32;;;;;;;4.90;2.35;;;;;;;17.15;68.55;100894.81;4975621;28;20050;-75
2022/08/22 03:25:06;;;;;;;4.47;2.63;;;;;;;17.18;68.63;100898.06;4942211;28;20049;-75
2022/08/22 03:28:12;;;;;;;5.38;2.78;;;;;;;17.22;68.58;100888.03;4945412;28;20338;-75
2022/08/22 03:30:54;;;;;;;9.95;2.90;;;;;;;17.25;68.40;100881.63;4968895;28;20038;-76
2022/08/22 03:33:28;;;;;;;3.75;2.35;;;;;;;17.24;68.40;100891.38;4977025;28;20066;-76
2022/08/22 03:36:10;;;;;;;4.93;2.75;;;;;;;17.27;68.02;100888.47;4944845;28;20046;-75
2022/08/22 03:38:46;;;;;;;7.38;2.45;;;;;;;17.31;67.64;100892.56;4967702;28;20055;-76
2022/08/22 03:41:59;;;;;;;5.13;2.38;;;;;;;17.39;68.44;100892.78;4966047;28;20050;-75
2022/08/22 03:44:44;;;;;;;4.07;2.55;;;;;;;17.40;67.91;100886.50;4935925;28;20721;-76
2022/08/22 03:47:30;;;;;;;6.57;2.60;;;;;;;17.41;67.62;100895.31;4952824;28;20613;-74
2022/08/22 03:50:16;;;;;;;6.22;2.60;;;;;;;17.41;67.80;100888.16;4969451;28;20054;-74
2022/08/22 03:56:07;;;;;;;4.60;2.28;;;;;;;17.44;67.47;100901.22;4966797;28;20631;-73
2022/08/22 03:58:52;;;;;;;5.53;2.50;;;;;;;17.46;67.91;100891.28;4967352;28;20039;-73
2022/08/22 04:01:22;;;;;;;6.27;2.93;;;;;;;17.47;67.76;100897.44;4960736;28;20073;-74
2022/08/22 04:03:58;;;;;;;4.68;2.60;;;;;;;17.50;67.43;100904.34;4974864;28;20049;-75
2022/08/22 04:06:54;;;;;;;4.65;2.50;;;;;;;17.52;67.42;100908.59;4961620;28;20388;-76
2022/08/22 04:09:47;;;;;;;8.70;2.92;;;;;;;17.55;67.74;100913.63;4984731;28;20077;-76
2022/08/22 04:12:20;;;;;;;7.43;2.95;;;;;;;17.58;68.18;100907.22;4959963;28;20078;-76
2022/08/22 04:15:09;;;;;;;7.13;3.33;;;;;;;17.56;68.04;100912.69;4957169;28;20528;-76
2022/08/22 04:18:00;;;;;;;6.25;3.05;;;;;;;17.58;68.71;100909.88;4964040;28;20065;-75
2022/08/22 04:20:49;;;;;;;4.63;2.58;;;;;;;17.58;68.14;100912.53;4951371;28;20062;-75
2022/08/22 04:23:37;;;;;;;4.55;2.53;;;;;;;17.55;68.08;100918.97;4957776;28;20641;-74
2022/08/22 04:26:40;;;;;;;6.95;3.17;;;;;;;17.55;68.15;100920.78;4946418;28;20517;-74
2022/08/22 04:29:31;;;;;;;5.97;2.97;;;;;;;17.58;68.85;100918.72;4961606;28;20050;-73
2022/08/22 04:32:08;;;;;;;6.90;2.63;;;;;;;17.59;68.34;100922.22;4958083;28;20085;-73
2022/08/22 04:34:49;;;;;;;7.53;2.80;;;;;;;17.60;68.01;100922.06;4961141;28;20061;-73
2022/08/22 04:37:32;;;;;;;5.45;2.83;;;;;;;17.64;68.41;100926.16;4957940;28;20078;-74
2022/08/22 04:40:16;;;;;;;11.27;3.20;;;;;;;17.65;67.89;100932.34;4951888;28;20081;-74
2022/08/22 04:42:53;;;;;;;7.25;2.42;;;;;;;17.67;68.44;100928.59;4961496;28;20055;-74
2022/08/22 04:45:59;;;;;;;3.65;2.55;;;;;;;17.71;68.57;100937.16;4957451;28;20473;-74
2022/08/22 04:48:44;;;;;;;5.18;2.90;;;;;;;17.70;68.81;100936.31;4867910;29;20197;-74
2022/08/22 04:51:24;;;;;;;7.30;3.20;;;;;;;17.72;68.50;100939.69;4873215;29;20055;-74
2022/08/22 04:53:54;;;;;;;6.90;2.95;;;;;;;17.74;68.38;100936.06;4947300;23;20051;-64
2022/08/22 04:56:23;;;;;;;8.30;3.03;;;;;;;17.73;68.18;100937.88;4975488;28;20090;-62
2022/08/22 04:58:57;;;;;;;6.93;3.10;;;;;;;17.75;67.99;100948.44;4976030;28;20059;-62
2022/08/22 05:01:37;;;;;;;4.95;2.65;;;;;;;17.76;69.17;100947.47;4957404;28;20731;-62
2022/08/22 05:04:11;;;;;;;5.47;2.83;;;;;;;17.78;68.83;100950.81;4979240;28;20047;-62
2022/08/22 05:06:43;;;;;;;8.27;2.83;;;;;;;17.77;68.67;100949.16;4976439;28;20073;-64
2022/08/22 05:09:14;;;;;;;5.88;3.15;;;;;;;17.78;68.61;100956.16;4976787;28;20062;-63
2022/08/22 05:11:45;;;;;;;5.82;2.90;;;;;;;17.80;68.95;100956.88;4975544;28;20677;-63
2022/08/22 05:14:37;;;;;;;11.90;3.30;;;;;;;17.83;69.19;100954.81;4947097;28;20748;-63
2022/08/22 05:17:08;;;;;;;8.30;3.50;;;;;;;17.85;70.08;100958.19;4976836;28;20073;-62
2022/08/22 05:19:38;;;;;;;10.50;3.30;;;;;;;17.86;70.95;100959.88;4971857;28;20400;-63
2022/08/22 05:22:13;;;;;;;7.80;3.40;;;;;;;17.84;69.55;100960.97;4973370;28;20121;-63
2022/08/22 05:24:45;;;;;;;9.18;2.80;;;;;;;17.79;69.72;100966.69;4974287;28;20071;-62
2022/08/22 05:27:17;;;;;;;6.22;3.00;;;;;;;17.79;69.45;100956.03;4973126;28;20047;-62
2022/08/22 05:29:46;;;;;;;4.93;2.70;;;;;;;17.83;69.04;100967.25;4972237;28;20065;-62
2022/08/22 05:32:25;;;;;;;6.43;3.15;;;;;;;17.86;69.26;100967.00;4972533;28;20510;-63
2022/08/22 05:34:56;;;;;;;7.07;2.65;;;;;;;17.89;69.08;100966.75;4950267;28;20236;-63
2022/08/22 05:37:32;;;;;;;7.60;3.10;;;;;;;17.93;69.26;100963.72;4959214;28;20117;-63
2022/08/22 05:40:00;;;;;;;7.93;3.28;;;;;;;17.95;69.30;100972.41;4970305;28;20403;-62
2022/08/22 05:42:30;;;;;;;5.38;2.88;;;;;;;17.97;69.21;100972.28;4973970;28;20100;-63
2022/08/22 05:45:00;;;;;;;7.43;3.35;;;;;;;17.95;69.70;100964.41;4971265;28;20065;-63
2022/08/22 05:47:35;;;;;;;12.00;3.45;;;;;;;18.00;69.30;100968.50;4976785;28;20591;-63
2022/08/22 05:50:05;;;;;;;6.63;3.40;;;;;;;17.98;71.46;100971.31;4968187;28;20066;-63
2022/08/22 05:53:13;;;;;;;7.78;3.80;;;;;;;17.98;71.16;100967.81;4984804;28;20103;-62
2022/08/22 05:55:46;;;;;;;6.43;3.85;;;;;;;18.05;73.70;100972.47;4977752;28;20061;-63
2022/08/22 05:58:38;;;;;;;7.65;3.90;;;;;;;18.04;73.17;100973.44;4975551;28;20135;-63
2022/08/22 06:01:15;;;;;;;12.02;4.25;;;;;;;18.10;72.29;100975.63;4977230;28;20047;-63
2022/08/22 06:04:16;;;;;;;9.50;3.50;;;;;;;18.20;71.64;100981.00;4971163;28;20138;-63
2022/08/22 06:07:02;;;;;;;8.00;3.38;;;;;;;18.31;70.81;100982.72;4951349;28;20055;-63
2022/08/22 06:09:31;;;;;;;7.60;3.75;;;;;;;18.34;70.71;100983.31;4979237;28;20090;-63
2022/08/22 06:12:13;;;;;;;4.93;3.35;;;;;;;18.41;70.53;100987.13;4974529;28;20081;-63
2022/08/22 06:15:00;;;;;;;8.18;4.20;;;;;;;18.48;70.76;100990.97;4975187;28;20059;-64
2022/08/22 06:17:34;;;;;;;9.50;4.63;;;;;;;18.50;72.92;100992.66;4983356;28;20050;-63
2022/08/22 06:20:05;;;;;;;12.18;3.97;;;;;;;18.51;72.54;100991.66;4977404;28;20058;-64
2022/08/22 06:22:37;;;;;;;10.18;4.50;;;;;;;18.56;72.49;101003.66;4975878;28;20054;-63
2022/08/22 06:25:12;;;;;;;10.45;3.88;;;;;;;18.65;72.17;100999.34;4968039;28;20104;-64
2022/08/22 06:27:39;;;;;;;12.23;4.15;;;;;;;18.74;72.34;101003.91;4976199;28;20085;-63
2022/08/22 06:30:08;;;;;;;13.05;4.38;;;;;;;18.84;71.84;100998.59;4980022;28;20054;-63
2022/08/22 06:32:40;;;;;;;9.15;4.38;;;;;;;18.90;73.27;100988.22;4979040;28;20156;-63
2022/08/22 06:38:27;;;;;;;12.13;4.53;;;;;;;19.10;72.69;100996.31;4983270;28;20055;-63
2022/08/22 06:40:56;;;;;;;7.93;4.38;;;;;;;19.16;72.16;100999.25;4977338;28;20105;-63
2022/08/22 06:43:24;;;;;;;9.63;4.10;;;;;;;19.27;72.72;101000.97;4961137;28;20059;-62
2022/08/22 06:45:52;;;;;;;8.55;3.97;;;;;;;19.35;72.35;101006.47;4959261;28;20064;-63
2022/08/22 06:48:21;;;;;;;11.93;4.13;;;;;;;19.43;72.02;101005.78;4975922;28;20046;-62
2022/08/22 06:50:52;;;;;;;8.00;4.43;;;;;;;19.50;71.79;100996.25;4969915;28;20061;-63
2022/08/22 06:53:43;;;;;;;7.63;4.50;;;;;;;19.58;71.23;101009.72;4973584;28;20486;-64
2022/08/22 06:56:38;;;;;;;9.87;4.80;;;;;;;19.68;70.95;101004.44;4973711;28;20450;-64
2022/08/22 06:59:09;;;;;;;7.38;3.45;;;;;;;19.74;71.13;101011.88;4966415;28;20050;-64
2022/08/22 07:02:07;;;;;;;5.97;3.70;;;;;;;19.82;70.65;101009.34;4974498;28;20060;-64
2022/08/22 07:04:35;;;;;;;5.05;3.15;;;;;;;19.91;70.28;101015.69;4977073;28;20054;-64
2022/08/22 07:07:02;;;;;;;8.80;3.92;;;;;;;19.98;69.90;101014.97;4977164;28;20558;-64
2022/08/22 07:09:33;;;;;;;6.13;3.25;;;;;;;20.06;70.09;101016.94;4962740;28;20065;-64
2022/08/22 07:12:09;;;;;;;8.57;3.25;;;;;;;20.13;69.91;101018.06;4978082;28;20065;-63
2022/08/22 07:14:43;;;;;;;7.03;3.00;;;;;;;20.19;69.51;101017.47;4971283;28;20371;-63
2022/08/22 07:17:20;;;;;;;9.30;3.80;;;;;;;20.27;69.17;101023.94;4981981;28;21311;-63
2022/08/22 07:20:14;;;;;;;6.30;2.80;;;;;;;20.36;68.50;101020.41;4979913;28;20069;-63
2022/08/22 07:22:52;;;;;;;8.30;3.05;;;;;;;20.43;68.28;101021.50;4976482;28;20078;-60
2022/08/22 07:25:21;;;;;;;4.55;2.08;;;;;;;20.53;67.64;101022.34;4969016;28;20054;-64
2022/08/22 07:27:51;;;;;;;3.58;1.88;;;;;;;20.62;67.32;101024.16;4959875;28;20406;-62
2022/08/22 07:30:20;;;;;;;6.18;2.13;;;;;;;20.69;66.83;101029.78;4976947;28;20093;-62
2022/08/22 07:32:58;;;;;;;3.50;1.70;;;;;;;20.78;66.82;101036.09;4979505;28;20060;-62
2022/08/22 07:35:49;;;;;;;5.32;2.17;;;;;;;20.85;66.23;101027.34;4978046;28;20308;-62
2022/08/22 07:38:42;;;;;;;6.33;2.20;;;;;;;20.92;66.29;101032.91;4961603;28;20061;-63
2022/08/22 07:41:19;;;;;;;5.10;2.20;;;;;;;20.96;65.42;101031.63;4979853;28;20062;-63
2022/08/22 07:44:08;;;;;;;2.65;1.60;;;;;;;21.02;65.25;101028.34;4977927;28;20050;-62
2022/08/22 07:47:06;;;;;;;5.78;1.80;;;;;;;21.04;64.85;101026.41;4964198;28;20042;-64
2022/08/22 07:49:55;;;;;;;5.68;1.92;;;;;;;21.09;64.59;101028.63;4964427;28;20069;-64
2022/08/22 07:52:22;;;;;;;4.32;1.88;;;;;;;21.16;63.82;101030.56;4979659;28;20046;-63
2022/08/22 07:55:16;;;;;;;4.15;1.55;;;;;;;21.23;63.83;101030.81;4978448;28;20055;-63
2022/08/22 07:57:46;;;;;;;4.82;1.70;;;;;;;21.28;62.56;101022.31;4978886;28;20500;-63
2022/08/22 08:00:17;;;;;;;7.75;2.30;;;;;;;21.27;62.16;101031.34;4979589;28;21712;-63
2022/08/22 08:02:51;;;;;;;4.53;1.35;;;;;;;21.30;62.33;101025.66;4981772;28;20117;-63
2022/08/22 08:05:21;;;;;;;3.88;1.63;;;;;;;21.35;61.96;101028.81;4963332;28;20046;-63
2022/08/22 08:07:51;;;;;;;5.68;2.13;;;;;;;21.40;61.50;101021.16;4959410;28;20122;-64
2022/08/22 08:10:23;;;;;;;3.00;1.30;;;;;;;21.47;61.62;101028.41;4961280;28;20054;-63
2022/08/22 08:12:54;;;;;;;4.93;2.00;;;;;;;21.54;61.31;101023.31;4978686;28;20064;-64
2022/08/22 08:15:31;;;;;;;6.47;1.60;;;;;;;21.57;60.21;101028.38;4964348;28;20051;-63
2022/08/22 08:18:04;;;;;;;4.70;1.90;;;;;;;21.63;60.50;101032.28;4964059;28;20054;-63
2022/08/22 08:20:34;;;;;;;4.45;1.45;;;;;;;21.67;60.00;101023.78;4979703;28;20683;-63
2022/08/22 08:23:03;;;;;;;3.28;1.30;;;;;;;21.74;60.27;101024.00;4978800;28;20086;-63
2022/08/22 08:25:47;;;;;;;2.97;1.48;;;;;;;21.81;59.50;101030.44;4958715;28;20046;-63
2022/08/22 08:28:33;;;;;;;3.15;1.27;;;;;;;21.85;60.03;101029.13;4978538;28;20055;-63
2022/08/22 08:31:07;;;;;;;6.80;1.88;;;;;;;21.91;58.78;101028.50;4966065;28;20526;-63
2022/08/22 08:33:37;;;;;;;3.85;1.83;;;;;;;21.92;59.57;101026.66;4980613;28;20054;-63
2022/08/22 08:36:22;;;;;;;4.72;1.75;;;;;;;21.99;59.74;101031.25;4962068;28;20546;-63
2022/08/22 08:39:02;;;;;;;4.80;1.20;;;;;;;22.10;59.21;101032.00;4982516;28;20077;-63
2022/08/22 08:41:44;;;;;;;4.68;1.50;;;;;;;22.17;59.12;101028.59;4978303;28;20046;-63
2022/08/22 08:44:44;;;;;;;5.18;2.10;;;;;;;22.24;58.74;101026.13;4959363;28;20082;-63
2022/08/22 08:47:34;;;;;;;6.60;2.55;;;;;;;22.25;58.07;101030.50;4948103;28;20054;-63
2022/08/22 08:50:28;;;;;;;6.50;1.70;;;;;;;22.24;58.22;101023.44;4961483;28;20046;-63
2022/08/22 08:53:23;;;;;;;4.75;1.45;;;;;;;22.31;58.75;101016.47;4953976;28;20053;-64
2022/08/22 08:56:00;;;;;;;4.17;1.37;;;;;;;22.37;58.34;101021.19;4979952;28;20053;-62
2022/08/22 08:58:55;;;;;;;3.88;1.35;;;;;;;22.44;57.75;101016.88;4972464;28;20503;-63
2022/08/22 09:01:58;;;;;;;5.35;1.67;;;;;;;22.44;56.56;101024.94;4979493;28;20064;-62
2022/08/22 09:04:52;;;;;;;4.32;1.63;;;;;;;22.48;56.55;101017.41;4971274;28;20066;-63
2022/08/22 09:08:15;;;;;;;6.10;1.48;;;;;;;22.48;55.83;101020.09;4956565;28;20438;-63
2022/08/22 09:11:03;;;;;;;4.32;1.50;;;;;;;22.50;55.47;101018.91;4931855;28;20051;-63
2022/08/22 09:13:57;;;;;;;6.78;1.73;;;;;;;22.53;54.68;101019.63;4976865;28;20065;-63
2022/08/22 09:16:37;;;;;;;4.75;1.48;;;;;;;22.59;55.08;101025.19;4975810;28;20069;-63
2022/08/22 09:19:12;;;;;;;6.25;1.52;;;;;;;22.64;54.59;101019.34;4978127;28;20053;-60
2022/08/22 09:22:24;;;;;;;6.70;1.85;;;;;;;22.70;54.96;101026.78;4977581;28;20157;-60
2022/08/22 09:25:23;;;;;;;7.57;2.00;;;;;;;22.77;54.75;101029.63;4977522;28;20053;-61
2022/08/22 09:28:12;;;;;;;5.88;2.72;;;;;;;22.83;54.94;101034.34;4978856;28;20731;-63
2022/08/22 09:31:05;;;;;;;8.23;1.60;;;;;;;22.89;54.98;101031.94;4963977;28;20058;-63
2022/08/22 09:34:00;;;;;;;5.90;1.77;;;;;;;22.95;54.83;101033.13;4983447;28;20054;-62
2022/08/22 09:36:58;;;;;;;4.60;1.30;;;;;;;22.99;54.83;101031.78;5002379;28;20069;-63
2022/08/22 09:39:34;;;;;;;7.28;1.67;;;;;;;23.03;54.15;101040.38;4983151;28;20213;-64
2022/08/22 09:42:07;;;;;;;7.45;1.73;;;;;;;23.04;54.63;101037.53;4979746;28;20058;-61
2022/08/22 09:44:50;;;;;;;3.08;1.55;;;;;;;23.14;54.56;101040.91;4982113;28;20054;-63
2022/08/22 09:47:41;;;;;;;9.13;1.98;;;;;;;23.25;54.71;101037.09;4976443;28;20050;-62
2022/08/22 09:50:17;;;;;;;9.85;1.98;;;;;;;23.33;53.87;101036.31;4962611;28;20766;-63
2022/08/22 09:53:08;;;;;;;8.93;1.73;;;;;;;23.28;52.46;101039.47;4974247;28;20069;-62
2022/08/22 09:56:11;;;;;;;6.88;1.48;;;;;;;23.34;53.58;101036.13;4978080;28;20096;-62
2022/08/22 09:58:53;;;;;;;3.22;1.40;;;;;;;23.41;52.88;101039.00;4965949;28;20073;-63
2022/08/22 10:01:26;;;;;;;6.28;1.80;;;;;;;23.46;52.60;101033.97;4966558;28;20070;-62
2022/08/22 10:04:41;;;;;;;5.80;1.38;;;;;;;23.52;51.99;101036.00;4966334;28;20055;-63
2022/08/22 10:07:31;;;;;;;3.75;1.40;;;;;;;23.61;52.38;101034.19;4975830;28;20054;-63
2022/08/22 10:10:17;;;;;;;7.40;1.52;;;;;;;23.62;51.27;101034.00;4977177;28;20058;-64
2022/08/22 10:12:53;;;;;;;8.05;1.98;;;;;;;23.66;51.53;101034.56;4979170;28;20050;-62
2022/08/22 10:15:30;;;;;;;5.38;1.92;;;;;;;23.67;51.42;101033.53;4967275;28;20515;-63
2022/08/22 10:18:09;;;;;;;3.45;1.27;;;;;;;23.80;52.07;101035.75;4980042;28;20058;-63
2022/08/22 10:20:49;;;;;;;4.45;1.55;;;;;;;23.92;51.96;101037.09;4982555;28;20054;-62
2022/08/22 10:23:43;;;;;;;4.45;1.30;;;;;;;24.00;51.61;101037.94;4976353;28;20431;-63
2022/08/22 10:26:33;;;;;;;2.22;1.20;;;;;;;24.07;50.93;101040.78;4979406;28;20069;-63
2022/08/22 10:29:34;;;;;;;5.70;1.70;;;;;;;24.12;50.12;101035.75;4963614;28;20099;-63
2022/08/22 10:32:24;;;;;;;4.63;1.35;;;;;;;24.21;51.00;101039.28;4980029;28;20146;-63
2022/08/22 10:34:56;;;;;;;5.00;1.55;;;;;;;24.25;49.56;101036.06;4966262;28;20105;-63
2022/08/22 10:37:54;;;;;;;8.90;1.90;;;;;;;24.28;48.59;101031.38;4973856;28;20043;-63
2022/08/22 10:40:25;;;;;;;3.72;1.48;;;;;;;24.29;49.43;101036.59;4975146;28;20042;-63
2022/08/22 10:42:58;;;;;;;3.95;1.30;;;;;;;24.40;49.52;101040.78;4979628;28;20060;-63
2022/08/22 10:45:39;;;;;;;4.05;1.20;;;;;;;24.46;48.41;101035.59;4962449;28;20435;-63
2022/08/22 10:48:09;;;;;;;7.07;2.00;;;;;;;24.61;49.16;101035.72;4963433;28;20538;-64
2022/08/22 10:50:41;;;;;;;3.03;1.75;;;;;;;24.81;49.62;101035.31;4981872;28;20054;-62
2022/08/22 10:53:32;;;;;;;6.82;1.25;;;;;;;24.94;49.45;101033.75;4977537;28;20051;-63
2022/08/22 10:56:25;;;;;;;3.25;1.27;;;;;;;25.03;48.89;101029.19;4957266;28;20050;-63
2022/08/22 10:59:18;;;;;;;3.92;1.60;;;;;;;25.08;48.89;101021.47;4980395;28;20065;-64
2022/08/22 11:02:05;;;;;;;3.30;1.20;;;;;;;25.17;48.53;101024.94;4977887;28;20922;-63
2022/08/22 11:04:43;;;;;;;5.70;2.03;;;;;;;25.14;48.34;101034.22;4977326;28;20042;-63
2022/08/22 11:07:15;;;;;;;4.38;1.38;;;;;;;25.22;48.70;101031.50;4973107;28;20615;-63
2022/08/22 11:09:52;;;;;;;3.75;1.52;;;;;;;25.29;48.12;101031.63;4961053;28;20503;-63
2022/08/22 11:12:30;;;;;;;6.07;1.90;;;;;;;25.31;46.76;101029.59;4980211;28;20137;-64
2022/08/22 11:15:17;;;;;;;4.60;1.58;;;;;;;25.38;47.94;101030.56;4977152;28;20055;-62
2022/08/22 11:18:13;;;;;;;3.75;1.48;;;;;;;25.47;47.74;101026.78;4979738;28;20058;-62
2022/08/22 11:21:01;;;;;;;6.57;1.60;;;;;;;25.57;47.36;101025.72;4977769;28;20055;-63
2022/08/22 11:23:43;;;;;;;4.85;1.50;;;;;;;25.53;45.84;101025.22;5004978;23;20050;-76
2022/08/22 11:26:26;;;;;;;4.50;1.27;;;;;;;25.62;46.74;101034.09;4970897;28;20046;-76
2022/08/22 11:29:21;;;;;;;4.80;1.20;;;;;;;25.74;47.17;101032.69;4988288;28;20105;-76
2022/08/22 11:32:04;;;;;;;3.77;1.10;;;;;;;25.78;47.03;101030.50;4977003;28;20046;-79
2022/08/22 11:35:12;;;;;;;4.50;1.92;;;;;;;25.83;46.72;101034.34;4965851;28;20039;-77
2022/08/22 11:37:59;;;;;;;;;;;;;;;25.85;45.29;101018.81;4937656;28;20054;-79
2022/08/22 11:40:35;;;;;;;3.33;1.30;;;;;;;25.91;45.95;101022.66;4946654;28;19929;-78
2022/08/22 11:43:27;;;;;;;6.40;1.48;;;;;;;25.62;43.48;101026.88;4934420;28;20484;-79
2022/08/22 11:46:14;;;;;;;5.03;1.88;;;;;;;25.46;44.36;101018.91;4970403;28;20105;-80
2022/08/22 11:49:20;;;;;;;1.45;1.08;;;;;;;25.57;45.24;101021.16;4947023;28;20557;-77
2022/08/22 11:51:56;;;;;;;4.70;1.40;;;;;;;25.77;45.80;101016.19;4959120;28;20038;-77
2022/08/22 11:54:39;;;;;;;3.38;1.23;;;;;;;25.92;45.92;101017.06;4973062;28;20061;-76
2022/08/22 11:57:33;;;;;;;3.43;1.20;;;;;;;26.13;45.96;101020.94;4957491;28;20118;-77
2022/08/22 12:00:31;;;;;;;7.25;1.65;;;;;;;26.21;42.17;101027.13;4950518;28;20049;-76
2022/08/22 12:03:17;;;;;;;5.93;1.60;;;;;;;26.12;43.77;101014.72;4976767;28;20043;-77
2022/08/22 12:05:52;;;;;;;5.18;1.70;;;;;;;26.12;43.23;101011.19;4952311;28;20070;-77
2022/08/22 12:08:29;;;;;;;5.55;1.33;;;;;;;26.15;44.08;101017.03;4969561;28;20070;-76
2022/08/22 12:10:58;;;;;;;4.45;1.35;;;;;;;26.24;43.83;101012.41;4952952;28;20046;-77
2022/08/22 12:13:51;;;;;;;3.03;1.10;;;;;;;26.34;44.68;101020.22;4960050;28;20137;-77
2022/08/22 12:16:55;;;;;;;5.13;1.52;;;;;;;26.42;44.06;101009.34;4951401;28;20050;-76
2022/08/22 12:19:33;;;;;;;6.80;1.40;;;;;;;26.31;42.03;101016.06;4972032;28;20121;-77
2022/08/22 12:22:34;;;;;;;4.15;1.70;;;;;;;26.24;42.54;101012.41;4952201;28;20308;-77
2022/08/22 12:25:29;;;;;;;2.67;1.20;;;;;;;26.33;43.44;101018.56;4945170;28;20077;-77
2022/08/22 12:28:17;;;;;;;4.13;1.13;;;;;;;26.51;43.81;101013.69;4965955;28;20253;-76
2022/08/22 12:31:24;;;;;;;4.75;1.50;;;;;;;26.65;43.39;101012.00;4963825;28;20034;-77
2022/08/22 12:34:12;;;;;;;4.88;1.70;;;;;;;26.61;42.99;101003.44;4950074;28;20073;-77
2022/08/22 12:37:01;;;;;;;3.63;1.52;;;;;;;26.68;42.56;101006.25;4937025;28;20143;-76
2022/08/22 12:39:35;;;;;;;5.18;1.35;;;;;;;26.76;43.13;100998.88;4964780;28;20122;-76
2022/08/22 12:42:13;;;;;;;3.08;1.23;;;;;;;26.90;42.55;101002.59;4939904;28;20180;-75
2022/08/22 12:45:22;;;;;;;5.00;1.20;;;;;;;26.95;41.13;100994.75;4935594;28;20069;-76